Time;durP1;ratioP1;P1;durP2;ratioP2;P2;SDS_P1;SDS_P2;PMS_P1;PMS_P2;Temp;Humidity;BMP_temperature;BMP_pressure;BME280_temperature;BME280_humidity;BME280_pressure;Samples;Min_cycle;Max_cycle;Signal;HPM_P1;HPM_P2
2021/09/12 00:02:09;;;;;;;5.88;5.38;;;;;;;16.09;100.00;98932.75;4985937;28;103287;-69
2021/09/12 00:04:40;;;;;;;5.45;4.95;;;;;;;15.99;100.00;98936.41;4980436;28;103202;-67
2021/09/12 00:07:09;;;;;;;4.72;4.32;;;;;;;16.11;100.00;98935.31;4987882;28;102860;-69
2021/09/12 00:09:37;;;;;;;5.15;4.75;;;;;;;16.08;100.00;98933.75;4985562;28;102642;-70
2021/09/12 00:12:07;;;;;;;5.78;5.20;;;;;;;16.12;100.00;98931.63;4975625;28;103468;-70
2021/09/12 00:14:35;;;;;;;6.40;5.90;;;;;;;15.78;100.00;98927.69;4990461;28;103230;-68
2021/09/12 00:17:04;;;;;;;5.15;4.65;;;;;;;15.96;100.00;98934.03;4988444;28;102545;-68
2021/09/12 00:19:32;;;;;;;6.45;5.85;;;;;;;15.94;100.00;98933.34;4975476;28;103466;-68
2021/09/12 00:22:00;;;;;;;4.55;4.13;;;;;;;15.97;100.00;98933.06;4975188;28;103286;-68
2021/09/12 00:24:29;;;;;;;6.22;5.13;;;;;;;15.66;100.00;98929.66;4987176;28;103218;-67
2021/09/12 00:26:57;;;;;;;4.90;4.38;;;;;;;15.75;100.00;98934.13;4984464;28;103021;-68
2021/09/12 00:29:25;;;;;;;5.63;5.13;;;;;;;15.80;100.00;98936.41;4990360;28;104422;-68
2021/09/12 00:31:53;;;;;;;5.00;4.60;;;;;;;15.83;100.00;98930.78;4984332;28;103980;-68
2021/09/12 00:34:21;;;;;;;5.53;4.60;;;;;;;15.83;100.00;98931.59;4986964;28;103385;-68
2021/09/12 00:36:50;;;;;;;4.30;3.90;;;;;;;15.87;100.00;98926.84;4983543;28;102774;-68
2021/09/12 00:39:18;;;;;;;5.68;5.18;;;;;;;15.80;100.00;98933.72;4991710;28;103585;-68
2021/09/12 00:41:47;;;;;;;4.88;4.38;;;;;;;15.75;100.00;98938.63;4985825;28;103345;-68
2021/09/12 00:44:16;;;;;;;5.15;4.68;;;;;;;15.82;100.00;98937.94;4986365;28;103212;-68
2021/09/12 00:46:45;;;;;;;5.18;4.78;;;;;;;15.91;100.00;98936.28;4969436;28;102826;-68
2021/09/12 00:49:15;;;;;;;4.88;4.25;;;;;;;15.90;99.66;98929.25;4986541;28;102753;-66
2021/09/12 00:51:43;;;;;;;3.55;3.25;;;;;;;15.86;100.00;98935.84;4988793;28;103352;-67
2021/09/12 00:54:12;;;;;;;4.22;3.83;;;;;;;15.84;99.52;98932.47;4989808;28;103228;-67
2021/09/12 00:56:41;;;;;;;7.30;5.72;;;;;;;15.58;99.92;98930.31;4966793;28;102608;-66
2021/09/12 00:59:13;;;;;;;6.28;4.93;;;;;;;15.70;100.00;98930.19;4988885;28;102741;-67
2021/09/12 01:01:42;;;;;;;6.75;5.72;;;;;;;15.52;100.00;98938.84;4986345;28;103060;-67
2021/09/12 01:04:11;;;;;;;5.53;4.38;;;;;;;15.65;100.00;98927.94;4987087;28;103496;-67
2021/09/12 01:06:40;;;;;;;5.43;4.88;;;;;;;15.59;100.00;98929.34;4969880;28;103967;-68
2021/09/12 01:09:08;;;;;;;4.82;4.43;;;;;;;15.54;100.00;98926.25;4982288;28;102783;-68
2021/09/12 01:11:36;;;;;;;5.07;4.67;;;;;;;15.51;100.00;98925.69;4981834;28;103332;-67
2021/09/12 01:14:04;;;;;;;4.50;4.10;;;;;;;15.58;100.00;98922.31;4984830;28;102998;-68
2021/09/12 01:16:34;;;;;;;4.43;4.03;;;;;;;15.65;100.00;98920.81;4987778;28;102702;-67
2021/09/12 01:19:01;;;;;;;4.55;3.38;;;;;;;15.68;99.64;98921.50;4978601;28;102868;-68
2021/09/12 01:21:32;;;;;;;4.10;3.70;;;;;;;15.73;99.37;98924.59;4987701;28;103400;-67
2021/09/12 01:24:00;;;;;;;3.65;3.35;;;;;;;15.65;99.15;98923.47;4990493;28;103202;-68
2021/09/12 01:26:29;;;;;;;4.30;3.80;;;;;;;15.52;100.00;98911.41;4986428;28;102755;-68
2021/09/12 01:28:57;;;;;;;6.25;5.65;;;;;;;15.46;99.08;98917.22;4981796;28;102722;-67
2021/09/12 01:31:27;;;;;;;6.90;5.68;;;;;;;15.17;100.00;98916.28;4970993;28;103270;-67
2021/09/12 01:33:56;;;;;;;5.10;4.65;;;;;;;15.08;100.00;98915.25;4988281;28;103294;-67
2021/09/12 01:36:25;;;;;;;4.28;3.97;;;;;;;15.19;100.00;98920.47;4988956;28;103152;-67
2021/09/12 01:38:55;;;;;;;5.55;4.90;;;;;;;15.15;100.00;98916.44;4985784;28;102716;-68
2021/09/12 01:41:23;;;;;;;4.03;3.73;;;;;;;15.26;100.00;98916.31;4983376;28;103434;-67
2021/09/12 01:43:56;;;;;;;5.50;4.97;;;;;;;15.30;100.00;98922.22;4985676;28;103250;-67
2021/09/12 01:46:25;;;;;;;4.35;4.03;;;;;;;15.36;100.00;98922.50;4987119;28;102644;-68
2021/09/12 01:48:56;;;;;;;4.35;3.95;;;;;;;15.35;100.00;98920.00;4989592;28;102723;-67
2021/09/12 01:51:24;;;;;;;3.92;3.63;;;;;;;15.31;100.00;98919.41;4990206;28;103905;-67
2021/09/12 01:53:52;;;;;;;4.38;4.07;;;;;;;15.33;99.45;98914.78;4981629;28;103271;-67
2021/09/12 01:56:20;;;;;;;4.00;3.70;;;;;;;15.28;99.63;98914.38;4984676;28;103155;-68
2021/09/12 01:58:48;;;;;;;4.03;3.42;;;;;;;15.33;99.17;98914.78;4986539;28;104267;-68
2021/09/12 02:01:18;;;;;;;6.07;5.47;;;;;;;15.04;98.45;98917.34;4969333;28;104133;-67
2021/09/12 02:03:47;;;;;;;5.23;4.73;;;;;;;15.00;100.00;98917.75;4987722;28;103214;-67
2021/09/12 02:06:15;;;;;;;6.73;5.50;;;;;;;14.96;100.00;98914.50;4987373;28;104425;-67
2021/09/12 02:08:44;;;;;;;4.97;4.27;;;;;;;14.92;100.00;98923.75;4983370;28;102793;-67
2021/09/12 02:11:12;;;;;;;4.17;3.87;;;;;;;15.03;100.00;98923.66;4986810;28;103271;-68
2021/09/12 02:13:40;;;;;;;6.50;5.30;;;;;;;14.75;100.00;98927.00;4983507;28;103204;-66
2021/09/12 02:16:08;;;;;;;6.93;6.33;;;;;;;14.68;100.00;98917.84;4983889;28;102982;-67
2021/09/12 02:18:38;;;;;;;6.60;6.00;;;;;;;14.78;100.00;98916.09;4968498;28;103632;-68
2021/09/12 02:21:06;;;;;;;7.13;5.67;;;;;;;14.78;100.00;98920.56;4986651;28;103250;-68
2021/09/12 02:23:34;;;;;;;5.37;4.93;;;;;;;14.81;100.00;98920.31;4991763;28;103203;-68
2021/09/12 02:26:02;;;;;;;6.37;4.90;;;;;;;14.78;100.00;98915.25;4988159;28;102731;-68
2021/09/12 02:28:30;;;;;;;5.60;5.10;;;;;;;14.72;100.00;98915.78;4987294;28;103607;-68
2021/09/12 02:30:58;;;;;;;4.60;4.20;;;;;;;14.81;100.00;98913.19;4980912;28;103373;-68
2021/09/12 02:33:26;;;;;;;4.03;3.73;;;;;;;14.72;100.00;98910.47;4985147;28;103208;-66
2021/09/12 02:35:56;;;;;;;6.20;5.23;;;;;;;14.77;100.00;98910.91;4982181;28;102589;-67
2021/09/12 02:38:24;;;;;;;5.47;4.60;;;;;;;14.84;100.00;98909.41;4988106;28;102778;-67
2021/09/12 02:40:52;;;;;;;3.50;3.20;;;;;;;14.95;100.00;98907.53;4990828;28;103586;-67
2021/09/12 02:43:20;;;;;;;5.47;4.97;;;;;;;14.90;99.67;98906.22;4985755;28;103292;-67
2021/09/12 02:45:48;;;;;;;4.70;3.90;;;;;;;14.88;99.99;98906.34;4984721;28;102624;-67
2021/09/12 02:48:16;;;;;;;6.47;4.80;;;;;;;14.81;100.00;98909.69;4986647;28;102725;-66
2021/09/12 02:50:44;;;;;;;7.33;4.57;;;;;;;14.75;100.00;98904.88;4986336;28;103385;-67
2021/09/12 02:53:13;;;;;;;7.80;4.77;;;;;;;14.64;100.00;98897.84;4965543;28;103040;-67
2021/09/12 02:55:41;;;;;;;6.43;4.17;;;;;;;14.56;100.00;98904.78;4962117;28;102722;-67
2021/09/12 02:58:10;;;;;;;5.43;3.90;;;;;;;14.68;100.00;98901.91;4984214;28;102818;-62
2021/09/12 03:00:38;;;;;;;4.23;3.80;;;;;;;14.70;100.00;98904.44;4982799;28;104170;-62
2021/09/12 03:03:06;;;;;;;4.33;3.93;;;;;;;14.68;100.00;98917.03;4982509;28;103799;-62
2021/09/12 03:05:34;;;;;;;5.43;4.87;;;;;;;14.63;100.00;98911.25;4982612;28;102633;-62
2021/09/12 03:08:03;;;;;;;4.33;3.50;;;;;;;14.60;100.00;98922.13;4986888;28;102977;-62
2021/09/12 03:10:32;;;;;;;3.47;2.93;;;;;;;14.62;100.00;98920.22;4990381;28;103511;-62
2021/09/12 03:13:00;;;;;;;3.30;3.10;;;;;;;14.66;100.00;98910.97;4983488;28;103204;-62
2021/09/12 03:15:28;;;;;;;2.80;2.60;;;;;;;14.68;99.62;98911.72;4994411;28;102701;-62
2021/09/12 03:17:56;;;;;;;4.37;3.20;;;;;;;14.73;99.02;98910.34;4991431;28;102752;-62
2021/09/12 03:20:25;;;;;;;4.70;4.30;;;;;;;14.74;98.41;98908.50;4990126;28;104438;-62
2021/09/12 03:22:52;;;;;;;4.60;4.20;;;;;;;14.69;98.20;98913.38;4995506;28;103366;-62
2021/09/12 03:25:21;;;;;;;5.33;4.40;;;;;;;14.47;98.16;98915.22;4996260;28;103215;-62
2021/09/12 03:27:52;;;;;;;5.40;4.40;;;;;;;14.40;99.53;98911.38;4981933;28;103172;-66
2021/09/12 03:30:20;;;;;;;5.33;4.80;;;;;;;14.44;99.87;98911.97;4986941;28;103239;-66
2021/09/12 03:32:48;;;;;;;5.97;4.97;;;;;;;14.28;100.00;98912.41;4985264;28;102617;-67
2021/09/12 03:35:17;;;;;;;6.20;4.50;;;;;;;14.30;100.00;98907.81;4990784;28;102852;-66
2021/09/12 03:37:45;;;;;;;4.67;4.27;;;;;;;14.34;99.79;98905.75;4988603;28;103139;-62
2021/09/12 03:40:13;;;;;;;6.80;5.00;;;;;;;14.41;99.73;98901.59;4988064;28;103973;-62
2021/09/12 03:42:41;;;;;;;6.30;5.10;;;;;;;14.39;99.38;98899.09;4986851;28;103225;-62
2021/09/12 03:45:11;;;;;;;6.37;5.40;;;;;;;14.34;99.16;98906.59;4989056;28;102639;-62
2021/09/12 03:47:39;;;;;;;5.63;4.40;;;;;;;14.32;99.42;98892.59;4966478;28;102693;-63
2021/09/12 03:50:08;;;;;;;5.20;4.73;;;;;;;14.38;99.30;98896.53;4986732;28;103874;-63
2021/09/12 03:52:36;;;;;;;5.03;4.50;;;;;;;14.43;99.16;98900.50;4979859;28;103335;-63
2021/09/12 03:55:05;;;;;;;4.37;3.27;;;;;;;14.44;98.72;98902.19;4982689;28;102649;-63
2021/09/12 03:57:33;;;;;;;4.70;4.40;;;;;;;14.43;97.60;98900.50;4991927;28;102651;-67
2021/09/12 04:00:01;;;;;;;4.50;4.10;;;;;;;14.35;97.66;98896.81;4983379;28;103286;-63
2021/09/12 04:02:40;;;;;;;3.90;3.60;;;;;;;14.30;98.20;98897.16;4982903;28;103722;-63
2021/09/12 04:05:09;;;;;;;3.90;3.60;;;;;;;14.27;98.37;98905.41;4989074;28;102783;-62
2021/09/12 04:07:37;;;;;;;3.50;3.20;;;;;;;14.29;98.41;98903.44;4985366;28;104185;-67
2021/09/12 04:10:07;;;;;;;4.67;4.17;;;;;;;14.28;98.36;98901.78;4988974;28;103317;-67
2021/09/12 04:12:35;;;;;;;3.67;3.03;;;;;;;14.32;98.83;98899.72;4986090;28;103251;-67
2021/09/12 04:15:04;;;;;;;5.20;3.60;;;;;;;14.33;98.46;98904.06;4987052;28;102610;-67
2021/09/12 04:17:32;;;;;;;3.20;2.60;;;;;;;14.32;98.32;98903.22;4992010;28;104150;-67
2021/09/12 04:20:02;;;;;;;3.90;2.80;;;;;;;14.32;97.93;98903.22;4987963;28;103251;-67
2021/09/12 04:22:30;;;;;;;4.17;3.57;;;;;;;14.31;97.52;98906.00;4983528;28;103239;-67
2021/09/12 04:24:58;;;;;;;4.00;3.60;;;;;;;14.22;98.19;98902.28;4984882;28;102588;-68
2021/09/12 04:27:26;;;;;;;4.60;4.10;;;;;;;14.13;98.13;98896.88;4985890;28;102622;-67
2021/09/12 04:29:54;;;;;;;4.00;3.60;;;;;;;14.09;99.08;98896.28;4989562;28;103715;-66
2021/09/12 04:32:22;;;;;;;3.70;3.30;;;;;;;14.11;99.22;98898.84;4965774;28;103218;-63
2021/09/12 04:34:50;;;;;;;3.87;3.47;;;;;;;14.11;98.44;98899.69;4986337;28;103796;-63
2021/09/12 04:37:20;;;;;;;3.50;3.20;;;;;;;14.11;98.34;98899.69;4990066;28;102733;-63
2021/09/12 04:39:48;;;;;;;3.40;3.10;;;;;;;14.09;98.29;98904.25;4987579;28;104075;-63
2021/09/12 04:42:16;;;;;;;5.03;2.93;;;;;;;14.08;98.39;98902.59;4970103;28;103229;-63
2021/09/12 04:44:44;;;;;;;3.80;3.50;;;;;;;14.02;97.62;98902.25;4989249;28;102901;-63
2021/09/12 04:47:12;;;;;;;5.13;3.10;;;;;;;14.05;98.30;98897.53;4986021;28;103279;-67
2021/09/12 04:49:40;;;;;;;2.70;2.50;;;;;;;14.08;98.18;98901.75;4994212;28;103253;-64
2021/09/12 04:52:08;;;;;;;2.60;2.40;;;;;;;14.10;97.72;98911.28;4985737;28;102712;-67
2021/09/12 04:54:38;;;;;;;3.07;2.53;;;;;;;14.12;97.54;98911.97;4986127;28;102991;-67
2021/09/12 04:57:06;;;;;;;3.47;3.07;;;;;;;14.11;97.13;98907.66;4986451;28;103942;-67
2021/09/12 04:59:36;;;;;;;2.77;2.37;;;;;;;14.11;97.21;98915.63;4987713;28;103915;-67
2021/09/12 05:02:05;;;;;;;3.07;2.87;;;;;;;14.14;97.18;98920.69;4986068;28;103239;-63
2021/09/12 05:04:34;;;;;;;4.10;3.40;;;;;;;14.11;95.83;98912.97;4992123;28;102615;-63
2021/09/12 05:07:02;;;;;;;2.80;2.40;;;;;;;14.05;96.50;98923.25;4983803;28;102768;-63
2021/09/12 05:09:30;;;;;;;3.33;3.10;;;;;;;13.92;97.19;98916.28;4988257;28;103236;-62
2021/09/12 05:11:59;;;;;;;3.30;3.00;;;;;;;13.84;97.31;98923.19;4978678;28;103189;-61
2021/09/12 05:14:27;;;;;;;4.20;3.73;;;;;;;13.68;97.81;98912.16;4987459;28;102799;-61
2021/09/12 05:16:55;;;;;;;4.37;4.07;;;;;;;13.58;99.73;98921.84;4986302;28;102647;-62
2021/09/12 05:19:23;;;;;;;3.47;3.17;;;;;;;13.72;99.84;98919.75;4982966;28;103663;-62
2021/09/12 05:21:51;;;;;;;3.13;2.90;;;;;;;13.83;99.55;98924.19;4980255;28;103196;-63
2021/09/12 05:24:19;;;;;;;3.30;3.00;;;;;;;13.89;99.50;98921.03;4986898;28;102641;-63
2021/09/12 05:26:47;;;;;;;4.03;3.50;;;;;;;13.94;99.31;98929.47;4988545;28;104234;-63
2021/09/12 05:29:18;;;;;;;2.83;2.57;;;;;;;14.04;99.41;98924.22;4984586;28;103251;-62
2021/09/12 05:31:46;;;;;;;3.83;3.00;;;;;;;14.11;99.28;98926.25;4984774;28;103256;-63
2021/09/12 05:34:14;;;;;;;3.37;2.93;;;;;;;14.15;98.77;98926.81;4969673;28;102733;-63
2021/09/12 05:36:42;;;;;;;3.03;2.73;;;;;;;14.19;98.98;98933.59;4990548;28;104369;-63
2021/09/12 05:39:10;;;;;;;3.13;2.60;;;;;;;14.27;98.42;98936.44;4994719;28;103257;-63
2021/09/12 05:41:38;;;;;;;3.83;3.50;;;;;;;14.24;96.99;98920.75;4968550;28;103308;-63
2021/09/12 05:44:06;;;;;;;3.93;3.17;;;;;;;14.27;97.15;98921.34;4991728;28;102753;-63
2021/09/12 05:46:36;;;;;;;2.60;2.40;;;;;;;14.34;97.72;98925.19;4986277;28;102755;-63
2021/09/12 05:49:05;;;;;;;4.07;3.67;;;;;;;14.43;97.22;98931.53;4984990;28;102774;-62
2021/09/12 05:51:33;;;;;;;3.63;2.57;;;;;;;14.56;97.31;98926.06;4984684;28;103213;-67
2021/09/12 05:54:01;;;;;;;4.27;3.40;;;;;;;14.56;97.68;98934.03;4983169;28;102550;-67
2021/09/12 05:56:29;;;;;;;3.20;2.90;;;;;;;14.68;96.67;98919.69;4982313;28;102807;-67
2021/09/12 05:58:57;;;;;;;2.83;2.50;;;;;;;14.79;95.62;98922.28;4987181;28;103273;-67
2021/09/12 06:01:25;;;;;;;3.40;2.57;;;;;;;14.82;95.10;98922.03;4983879;28;103227;-67
2021/09/12 06:03:55;;;;;;;3.43;2.90;;;;;;;14.82;95.96;98927.34;4973635;28;102892;-68
2021/09/12 06:06:23;;;;;;;2.57;2.30;;;;;;;14.96;96.16;98929.66;4987759;28;102738;-67
2021/09/12 06:08:51;;;;;;;2.53;2.27;;;;;;;15.05;96.22;98928.81;4987059;28;104065;-68
2021/09/12 06:11:19;;;;;;;2.20;2.00;;;;;;;15.11;96.41;98928.31;4977921;28;103203;-63
2021/09/12 06:13:47;;;;;;;3.97;2.90;;;;;;;15.24;95.76;98928.91;4966558;28;102776;-62
2021/09/12 06:16:15;;;;;;;2.93;2.63;;;;;;;15.30;96.14;98928.38;4983505;28;104117;-63
2021/09/12 06:18:44;;;;;;;2.30;2.10;;;;;;;15.47;95.38;98929.56;4985578;28;103398;-63
2021/09/12 06:21:13;;;;;;;2.97;2.63;;;;;;;15.58;94.93;98932.97;4988314;28;102986;-62
2021/09/12 06:23:42;;;;;;;3.77;3.40;;;;;;;15.67;94.58;98933.97;4963805;28;102719;-63
2021/09/12 06:26:10;;;;;;;7.03;5.93;;;;;;;15.39;96.37;98932.88;4985590;28;102844;-63
2021/09/12 06:28:38;;;;;;;4.10;3.70;;;;;;;15.45;98.86;98939.50;4986450;28;103265;-63
2021/09/12 06:31:06;;;;;;;7.27;6.57;;;;;;;15.44;98.76;98940.47;4979012;28;103241;-62
2021/09/12 06:33:34;;;;;;;8.10;6.27;;;;;;;15.56;100.00;98937.59;4984713;28;102962;-62
2021/09/12 06:36:03;;;;;;;6.77;6.20;;;;;;;15.57;100.00;98935.78;4988460;28;102708;-67
2021/09/12 06:38:32;;;;;;;5.93;5.43;;;;;;;15.72;100.00;98929.06;4985127;28;103756;-67
2021/09/12 06:41:00;;;;;;;7.60;6.87;;;;;;;15.79;99.90;98924.03;4985025;28;103383;-67
2021/09/12 06:43:28;;;;;;;9.67;8.67;;;;;;;15.86;100.00;98930.53;4983924;28;102790;-67
2021/09/12 06:45:56;;;;;;;6.83;6.20;;;;;;;15.95;100.00;98916.34;4983800;28;102812;-67
2021/09/12 06:48:24;;;;;;;10.97;9.50;;;;;;;16.02;99.90;98925.47;4984696;28;103117;-67
2021/09/12 06:50:53;;;;;;;9.93;9.03;;;;;;;15.98;100.00;98929.38;4964566;28;103066;-67
2021/09/12 06:53:22;;;;;;;11.27;10.27;;;;;;;16.05;100.00;98935.88;4965492;28;102928;-67
2021/09/12 06:55:52;;;;;;;9.67;8.80;;;;;;;16.22;100.00;98943.16;4979398;28;103476;-68
2021/09/12 06:58:20;;;;;;;7.97;7.27;;;;;;;16.36;99.76;98934.75;4976821;28;103951;-67
2021/09/12 07:00:48;;;;;;;9.70;8.80;;;;;;;16.35;99.87;98941.03;4966711;28;103894;-66
2021/09/12 07:03:16;;;;;;;10.03;9.13;;;;;;;16.34;100.00;98947.34;4980126;28;102985;-68
2021/09/12 07:05:45;;;;;;;9.67;8.77;;;;;;;16.35;100.00;98946.38;4986114;28;102749;-67
2021/09/12 07:08:14;;;;;;;11.97;10.87;;;;;;;16.52;99.56;98945.66;4986606;28;104169;-71
2021/09/12 07:10:42;;;;;;;11.20;10.20;;;;;;;16.32;100.00;98941.31;4972954;28;104219;-71
2021/09/12 07:13:12;;;;;;;10.13;9.23;;;;;;;16.60;99.63;98943.16;4985929;28;102928;-72
2021/09/12 07:15:40;;;;;;;10.80;9.90;;;;;;;16.66;99.83;98942.59;4967531;28;103192;-71
2021/09/12 07:18:08;;;;;;;10.27;9.37;;;;;;;16.86;98.58;98942.53;4988495;28;103342;-71
2021/09/12 07:20:37;;;;;;;9.90;8.90;;;;;;;17.08;97.92;98947.53;4990597;28;103358;-71
2021/09/12 07:23:06;;;;;;;8.67;7.97;;;;;;;17.28;96.67;98944.66;4994065;28;102701;-72
2021/09/12 07:25:34;;;;;;;8.33;7.53;;;;;;;17.64;92.78;98950.97;4987859;28;103792;-71
2021/09/12 07:28:02;;;;;;;8.75;7.95;;;;;;;17.55;93.26;98951.84;4983503;28;103330;-71
2021/09/12 07:30:32;;;;;;;8.32;7.55;;;;;;;17.62;91.49;98955.63;4988672;28;102970;-72
2021/09/12 07:33:00;;;;;;;5.72;5.22;;;;;;;18.09;90.51;98956.31;4971867;28;103207;-72
2021/09/12 07:35:28;;;;;;;7.63;6.90;;;;;;;18.30;88.86;98956.00;4969570;28;102696;-63
2021/09/12 07:37:56;;;;;;;5.93;5.43;;;;;;;18.37;88.90;98963.25;4990021;28;103002;-63
2021/09/12 07:40:28;;;;;;;7.00;6.40;;;;;;;18.57;86.83;98961.28;4983426;28;103213;-62
2021/09/12 07:42:57;;;;;;;6.13;5.63;;;;;;;19.07;84.81;98954.28;4975075;28;102753;-62
2021/09/12 07:45:25;;;;;;;5.30;4.90;;;;;;;19.33;84.26;98953.44;4970776;28;102849;-63
2021/09/12 07:47:54;;;;;;;6.28;5.68;;;;;;;19.58;81.89;98964.13;4988618;28;103995;-63
2021/09/12 07:50:23;;;;;;;6.10;5.50;;;;;;;19.83;81.32;98962.38;4989993;28;103201;-63
2021/09/12 07:52:51;;;;;;;4.68;4.28;;;;;;;19.85;82.69;98962.19;4986884;28;102649;-63
2021/09/12 07:55:20;;;;;;;5.78;5.15;;;;;;;19.84;80.86;98969.44;4982978;28;103768;-72
2021/09/12 07:57:48;;;;;;;4.60;4.20;;;;;;;20.22;79.27;98968.84;4990563;28;103871;-71
2021/09/12 08:00:16;;;;;;;4.50;4.10;;;;;;;20.90;75.65;98967.72;4975994;28;103259;-71
2021/09/12 08:02:44;;;;;;;4.88;4.47;;;;;;;21.13;75.72;98974.94;4975313;28;102782;-73
2021/09/12 08:05:15;;;;;;;4.90;4.50;;;;;;;21.06;75.91;98970.38;4993344;28;102703;-72
2021/09/12 08:07:43;;;;;;;4.85;4.32;;;;;;;21.45;75.36;98968.63;4990071;28;103246;-63
2021/09/12 08:10:11;;;;;;;4.68;4.28;;;;;;;21.71;72.95;98966.53;4988525;28;103168;-63
2021/09/12 08:12:39;;;;;;;4.45;3.65;;;;;;;22.07;72.09;98969.56;4991132;28;102631;-64
2021/09/12 08:15:08;;;;;;;4.13;3.83;;;;;;;22.13;71.22;98976.91;4994718;28;103955;-72
2021/09/12 08:17:36;;;;;;;4.15;3.75;;;;;;;22.48;69.52;98973.63;4980708;28;104342;-72
2021/09/12 08:20:05;;;;;;;4.15;3.83;;;;;;;22.76;69.67;98973.97;4993583;28;103232;-72
2021/09/12 08:22:35;;;;;;;4.20;3.60;;;;;;;22.67;69.77;98980.44;4989300;28;102985;-72
2021/09/12 08:25:05;;;;;;;4.57;3.33;;;;;;;23.35;68.41;98976.78;4987384;28;102634;-63
2021/09/12 08:27:33;;;;;;;3.85;3.33;;;;;;;23.48;66.06;98976.97;4988142;28;104070;-63
2021/09/12 08:30:01;;;;;;;5.88;4.35;;;;;;;21.71;69.59;98979.97;4984003;28;103208;-64
2021/09/12 08:32:29;;;;;;;5.05;4.00;;;;;;;21.91;70.60;98983.09;4989526;28;102610;-64
2021/09/12 08:34:57;;;;;;;3.78;3.47;;;;;;;23.09;67.78;98974.50;4991326;28;104231;-64
2021/09/12 08:37:26;;;;;;;3.63;3.03;;;;;;;23.98;63.19;98973.47;4986920;28;103363;-74
2021/09/12 08:39:55;;;;;;;4.55;3.30;;;;;;;23.68;65.20;98972.72;4982867;28;103215;-73
2021/09/12 08:42:26;;;;;;;4.15;3.38;;;;;;;22.61;70.39;98982.97;4986956;28;102597;-64
2021/09/12 08:44:54;;;;;;;4.03;3.72;;;;;;;22.65;69.16;98981.66;4981694;28;102895;-65
2021/09/12 08:47:22;;;;;;;3.65;3.30;;;;;;;23.36;66.47;98984.66;4982545;28;104012;-66
2021/09/12 08:49:52;;;;;;;3.53;3.22;;;;;;;23.27;66.25;98980.38;4984257;28;103398;-66
2021/09/12 08:52:20;;;;;;;4.03;3.72;;;;;;;22.95;65.51;98980.72;4987675;28;102948;-66
2021/09/12 08:54:48;;;;;;;3.65;2.78;;;;;;;23.80;64.28;98982.00;4985932;28;102838;-66
2021/09/12 08:57:17;;;;;;;4.15;2.60;;;;;;;24.35;63.90;98975.19;4966832;28;103036;-67
2021/09/12 08:59:50;;;;;;;2.92;2.70;;;;;;;24.74;63.02;98968.31;4987124;28;103196;-66
2021/09/12 09:02:25;;;;;;;3.45;3.15;;;;;;;24.86;59.52;98967.81;4982107;28;102634;-63
2021/09/12 09:05:01;;;;;;;4.03;3.20;;;;;;;23.33;61.98;98973.41;4988282;28;103883;-71
2021/09/12 09:07:30;;;;;;;2.67;2.47;;;;;;;23.84;64.04;98977.03;4975620;28;103288;-71
2021/09/12 09:10:00;;;;;;;2.97;2.60;;;;;;;24.90;63.43;98974.50;4965636;28;103244;-65
2021/09/12 09:12:32;;;;;;;3.00;2.80;;;;;;;24.48;61.69;98972.59;4988211;28;102858;-71
2021/09/12 09:15:10;;;;;;;2.70;2.50;;;;;;;25.30;60.83;98962.94;4986023;28;103846;-65
2021/09/12 09:17:41;;;;;;;3.33;3.00;;;;;;;24.63;61.39;98968.84;4989767;28;103248;-72
2021/09/12 09:20:15;;;;;;;2.40;2.17;;;;;;;25.02;60.99;98959.41;4985239;28;103195;-71
2021/09/12 09:22:45;;;;;;;2.38;2.17;;;;;;;25.65;57.94;98964.66;4973372;28;102964;-65
2021/09/12 09:25:17;;;;;;;2.72;2.40;;;;;;;25.19;59.22;98958.09;4977397;28;103936;-72
2021/09/12 09:28:07;;;;;;;5.18;2.33;;;;;;;24.89;57.64;98962.03;4989083;28;103085;-64
2021/09/12 09:30:37;;;;;;;2.45;2.25;;;;;;;25.40;56.89;98957.19;4983065;28;103194;-65
2021/09/12 09:33:17;;;;;;;2.40;1.80;;;;;;;25.59;55.83;98948.38;4985498;28;103758;-65
2021/09/12 09:36:07;;;;;;;2.72;2.30;;;;;;;25.21;60.66;98950.59;4992247;28;103489;-65
2021/09/12 09:38:37;;;;;;;2.15;1.95;;;;;;;25.70;55.90;98945.09;4981778;28;103123;-65
2021/09/12 09:41:08;;;;;;;3.33;2.28;;;;;;;22.65;58.53;98954.72;4983374;28;103808;-65
2021/09/12 09:43:47;;;;;;;2.25;2.05;;;;;;;23.07;60.04;98944.22;4967848;28;102968;-65
2021/09/12 09:46:30;;;;;;;2.78;1.88;;;;;;;24.00;56.65;98945.28;4965729;28;102742;-65
2021/09/12 09:48:59;;;;;;;1.73;1.63;;;;;;;24.56;57.63;98938.22;4983554;28;103303;-66
2021/09/12 09:51:28;;;;;;;1.30;1.20;;;;;;;25.52;56.21;98937.50;4979941;28;103214;-65
2021/09/12 09:53:58;;;;;;;2.72;1.50;;;;;;;24.50;55.99;98935.47;4988909;28;102627;-66
2021/09/12 09:56:26;;;;;;;2.20;1.20;;;;;;;;;;4983548;28;102668;-65
2021/09/12 09:58:57;;;;;;;1.63;1.30;;;;;;;24.30;54.92;98931.75;4979562;28;102876;-65
2021/09/12 10:01:25;;;;;;;1.10;0.93;;;;;;;25.55;51.43;98939.81;4987826;28;103275;-65
2021/09/12 10:03:54;;;;;;;2.25;1.80;;;;;;;26.03;50.49;98939.81;4986556;28;102658;-65
2021/09/12 10:06:25;;;;;;;1.52;1.42;;;;;;;25.38;52.51;98939.28;4980648;28;102716;-64
2021/09/12 10:08:53;;;;;;;1.25;1.10;;;;;;;25.49;52.11;98942.50;4983904;28;103307;-65
2021/09/12 10:11:22;;;;;;;1.45;1.27;;;;;;;25.48;50.13;98938.97;4988382;28;103267;-65
2021/09/12 10:13:51;;;;;;;2.60;1.33;;;;;;;25.22;51.64;98938.78;4969989;28;102773;-65
2021/09/12 10:16:22;;;;;;;2.15;1.40;;;;;;;23.83;53.84;98940.31;4983552;28;102622;-65
2021/09/12 10:18:50;;;;;;;2.60;1.70;;;;;;;23.18;54.67;98938.38;4983756;28;104439;-65
2021/09/12 10:21:26;;;;;;;1.60;1.50;;;;;;;24.46;52.57;98935.00;4983982;28;103257;-65
2021/09/12 10:24:06;;;;;;;1.73;1.63;;;;;;;25.27;54.52;98930.88;4981042;28;102757;-64
2021/09/12 10:26:37;;;;;;;2.22;1.80;;;;;;;24.06;56.02;98922.09;4989839;28;104080;-73
2021/09/12 10:29:06;;;;;;;2.25;2.05;;;;;;;23.34;56.66;98921.19;4991951;28;103941;-73
2021/09/12 10:31:37;;;;;;;2.40;1.83;;;;;;;22.82;58.62;98929.31;4983861;28;103215;-73
2021/09/12 10:34:11;;;;;;;2.42;1.80;;;;;;;23.89;56.36;98918.00;4977285;28;102713;-72
2021/09/12 10:36:40;;;;;;;1.92;1.83;;;;;;;22.74;55.81;98914.06;4985782;28;103017;-72
2021/09/12 10:39:32;;;;;;;2.42;1.42;;;;;;;24.12;56.47;98913.28;4985739;28;103294;-72
2021/09/12 10:42:17;;;;;;;1.58;1.48;;;;;;;25.27;53.98;98909.25;4964239;28;104215;-72
2021/09/12 10:44:46;;;;;;;2.03;1.83;;;;;;;25.00;53.41;98908.28;4966783;28;102788;-73
2021/09/12 10:47:21;;;;;;;2.30;2.10;;;;;;;24.81;52.55;98910.84;4968477;28;103116;-64
2021/09/12 10:49:49;;;;;;;3.50;2.00;;;;;;;23.80;55.59;98914.56;4990380;28;103085;-64
2021/09/12 10:52:45;;;;;;;2.50;1.70;;;;;;;24.15;55.06;98910.19;4967324;28;103236;-64
2021/09/12 10:55:14;;;;;;;2.13;1.40;;;;;;;25.48;51.45;98902.97;4985718;28;102651;-65
2021/09/12 10:57:42;;;;;;;2.53;1.58;;;;;;;26.38;50.47;98911.63;4986911;28;102660;-64
2021/09/12 11:00:11;;;;;;;2.03;1.42;;;;;;;26.37;48.44;98904.53;4984707;28;103292;-64
2021/09/12 11:02:48;;;;;;;2.05;1.50;;;;;;;25.21;52.37;98896.53;4959682;28;103208;-64
2021/09/12 11:05:25;;;;;;;2.42;2.00;;;;;;;25.11;51.15;98901.47;4976495;28;102996;-65
2021/09/12 11:07:54;;;;;;;3.00;1.80;;;;;;;24.98;51.61;98898.69;4981007;28;102752;-64
2021/09/12 11:10:37;;;;;;;1.45;1.35;;;;;;;25.45;49.71;98893.34;4962679;28;103264;-65
2021/09/12 11:13:05;;;;;;;2.15;1.70;;;;;;;26.15;49.44;98892.19;4980009;28;102999;-64
2021/09/12 11:15:34;;;;;;;2.47;1.77;;;;;;;25.91;47.82;98893.56;4982422;28;102712;-64
2021/09/12 11:18:03;;;;;;;1.90;1.63;;;;;;;26.43;48.38;98882.88;4972971;28;102801;-64
2021/09/12 11:20:42;;;;;;;1.75;1.35;;;;;;;27.29;48.55;98880.06;4969713;28;104153;-71
2021/09/12 11:23:11;;;;;;;1.77;1.63;;;;;;;27.37;47.44;98883.38;4973176;28;103225;-71
2021/09/12 11:25:39;;;;;;;2.50;2.30;;;;;;;25.31;50.83;98881.66;4982308;28;102719;-73
2021/09/12 11:28:08;;;;;;;2.13;1.92;;;;;;;25.06;52.50;98887.72;4979736;28;102664;-72
2021/09/12 11:30:40;;;;;;;2.40;2.20;;;;;;;25.89;49.20;98874.81;4981105;28;104736;-66
2021/09/12 11:33:09;;;;;;;2.72;2.17;;;;;;;25.15;50.06;98876.53;4964598;28;103683;-67
2021/09/12 11:35:38;;;;;;;1.42;1.20;;;;;;;26.34;49.68;98869.72;4979000;28;102693;-66